Time;durP1;ratioP1;P1;durP2;ratioP2;P2;SDS_P1;SDS_P2;PMS_P1;PMS_P2;Temp;Humidity;BMP_temperature;BMP_pressure;BME280_temperature;BME280_humidity;BME280_pressure;Samples;Min_cycle;Max_cycle;Signal;HPM_P1;HPM_P2
2022/04/03 00:00:31;;;;;;;3.85;3.05;;;5.20;99.90;;;;;;5093738;28;20374;-86
2022/04/03 00:02:58;;;;;;;3.05;2.75;;;5.20;99.90;;;;;;5094438;28;20470;-86
2022/04/03 00:05:23;;;;;;;4.00;3.30;;;5.20;99.90;;;;;;5093149;28;20031;-86
2022/04/03 00:07:49;;;;;;;3.20;2.90;;;5.30;99.90;;;;;;5094387;28;20024;-86
2022/04/03 00:10:14;;;;;;;3.75;3.03;;;5.30;99.90;;;;;;5093290;28;20024;-86
2022/04/03 00:12:41;;;;;;;3.42;3.03;;;5.30;99.90;;;;;;5093143;28;20451;-86
2022/04/03 00:15:07;;;;;;;2.72;2.53;;;5.30;99.90;;;;;;5092921;28;20051;-86
2022/04/03 00:17:32;;;;;;;4.03;3.10;;;5.20;99.90;;;;;;5092722;28;20098;-86
2022/04/03 00:19:58;;;;;;;3.30;3.00;;;5.30;99.90;;;;;;5093084;28;20028;-86
2022/04/03 00:22:28;;;;;;;3.42;2.88;;;5.30;99.90;;;;;;5094504;28;20024;-86
2022/04/03 00:24:54;;;;;;;3.67;3.10;;;5.30;99.90;;;;;;5094372;28;20103;-86
2022/04/03 00:27:20;;;;;;;4.45;3.47;;;5.30;99.90;;;;;;5093206;28;20063;-86
2022/04/03 00:29:45;;;;;;;3.65;2.90;;;5.30;99.90;;;;;;5093055;28;20024;-86
2022/04/03 00:32:11;;;;;;;4.82;3.20;;;5.30;99.90;;;;;;5094150;28;20046;-86
2022/04/03 00:34:36;;;;;;;5.28;3.28;;;5.30;99.90;;;;;;5094064;28;20032;-86
2022/04/03 00:37:02;;;;;;;3.95;3.05;;;5.30;99.90;;;;;;5093184;28;20059;-86
2022/04/03 00:39:28;;;;;;;2.85;2.50;;;5.30;99.90;;;;;;5095786;28;20493;-86
2022/04/03 00:41:54;;;;;;;2.88;2.60;;;5.30;99.90;;;;;;5097105;28;20024;-86
2022/04/03 00:44:20;;;;;;;2.78;2.58;;;5.40;99.90;;;;;;5097197;28;20020;-86
2022/04/03 00:46:49;;;;;;;3.13;2.83;;;5.30;99.90;;;;;;5098048;28;20024;-86
2022/04/03 00:49:14;;;;;;;3.03;2.70;;;5.20;99.90;;;;;;5097090;28;20028;-86
2022/04/03 00:51:40;;;;;;;2.83;2.60;;;5.30;99.90;;;;;;5096760;28;20020;-86
2022/04/03 00:54:07;;;;;;;3.10;2.80;;;5.30;99.90;;;;;;5096955;28;20031;-87
2022/04/03 00:56:34;;;;;;;3.28;2.95;;;5.20;99.90;;;;;;5096689;28;20551;-86
2022/04/03 00:59:00;;;;;;;3.22;2.70;;;5.20;99.90;;;;;;5096685;28;20031;-87
2022/04/03 01:01:25;;;;;;;4.05;2.88;;;5.30;99.90;;;;;;5096700;28;20024;-87
2022/04/03 01:03:51;;;;;;;3.22;2.92;;;5.20;99.90;;;;;;5097873;28;20017;-86
2022/04/03 01:06:17;;;;;;;3.67;3.00;;;5.10;99.90;;;;;;5096484;28;20119;-85
2022/04/03 01:08:43;;;;;;;4.30;2.92;;;5.00;99.90;;;;;;5096592;28;20024;-86
2022/04/03 01:11:12;;;;;;;3.58;3.20;;;4.90;99.90;;;;;;5096440;28;20089;-86
2022/04/03 01:13:49;;;;;;;3.78;2.72;;;4.80;99.90;;;;;;5096333;28;20020;-86
2022/04/03 01:16:14;;;;;;;2.90;2.60;;;4.60;99.90;;;;;;5096087;28;20070;-86
2022/04/03 01:18:40;;;;;;;3.08;2.83;;;4.50;99.90;;;;;;5096299;28;20478;-86
2022/04/03 01:21:06;;;;;;;3.25;2.92;;;4.40;99.90;;;;;;5096362;28;20046;-86
2022/04/03 01:23:32;;;;;;;3.10;2.53;;;4.30;99.90;;;;;;5096495;28;20055;-86
2022/04/03 01:25:58;;;;;;;4.22;3.20;;;4.20;99.90;;;;;;5096322;28;20058;-86
2022/04/03 01:28:24;;;;;;;3.75;2.90;;;4.30;99.90;;;;;;5096025;28;20111;-86
2022/04/03 01:30:50;;;;;;;3.10;2.83;;;4.20;99.90;;;;;;5096060;28;20016;-86
2022/04/03 01:33:16;;;;;;;3.42;2.95;;;4.20;99.90;;;;;;5097353;28;20065;-86
2022/04/03 01:35:43;;;;;;;3.38;3.08;;;4.20;99.90;;;;;;5096065;28;20024;-86
2022/04/03 01:38:08;;;;;;;3.92;3.15;;;4.20;99.90;;;;;;5095690;28;20024;-86
2022/04/03 01:40:35;;;;;;;4.35;3.40;;;4.30;99.90;;;;;;5096039;28;20161;-86
2022/04/03 01:43:03;;;;;;;3.42;3.10;;;4.30;99.90;;;;;;5095986;28;20076;-86
2022/04/03 01:45:28;;;;;;;4.57;3.28;;;4.30;99.90;;;;;;5096834;28;20020;-86
2022/04/03 01:47:54;;;;;;;3.88;3.33;;;4.40;99.90;;;;;;5095631;28;20028;-86
2022/04/03 01:50:19;;;;;;;4.63;3.20;;;4.40;99.90;;;;;;5095308;28;20122;-86
2022/04/03 01:52:45;;;;;;;4.00;3.10;;;4.40;99.90;;;;;;5096823;28;20103;-86
2022/04/03 01:55:11;;;;;;;3.33;2.90;;;4.40;99.90;;;;;;5095622;28;20024;-86
2022/04/03 01:57:37;;;;;;;4.43;3.42;;;4.40;99.90;;;;;;5095642;28;20036;-86
2022/04/03 02:00:06;;;;;;;3.30;3.00;;;4.50;99.90;;;;;;5095576;28;20016;-86
2022/04/03 02:02:33;;;;;;;3.50;3.20;;;4.40;99.90;;;;;;5095307;28;20048;-86
2022/04/03 02:04:58;;;;;;;3.15;2.83;;;4.40;99.90;;;;;;5095562;28;20489;-87
2022/04/03 02:07:25;;;;;;;3.25;2.95;;;4.30;99.90;;;;;;5095342;28;20024;-86
2022/04/03 02:09:51;;;;;;;4.50;3.63;;;4.20;99.90;;;;;;5095373;28;20028;-86
2022/04/03 02:12:16;;;;;;;3.85;3.53;;;4.20;99.90;;;;;;5095323;28;20035;-85
2022/04/03 02:14:42;;;;;;;4.03;3.63;;;4.20;99.90;;;;;;5095385;28;20379;-86
2022/04/03 02:17:08;;;;;;;5.30;3.60;;;4.10;99.90;;;;;;5095975;28;20187;-86
2022/04/03 02:19:33;;;;;;;4.18;3.50;;;4.10;99.90;;;;;;5095187;28;20049;-86
2022/04/03 02:21:59;;;;;;;3.70;3.13;;;4.00;99.90;;;;;;5095225;28;20024;-86
2022/04/03 02:24:24;;;;;;;3.53;3.13;;;4.00;99.90;;;;;;5096368;28;20027;-86
2022/04/03 02:26:51;;;;;;;3.30;3.00;;;4.00;99.90;;;;;;5095070;28;20024;-86
2022/04/03 02:29:17;;;;;;;3.50;3.08;;;3.90;99.90;;;;;;5096103;28;20105;-86
2022/04/03 02:31:42;;;;;;;3.40;3.10;;;3.90;99.90;;;;;;5096193;28;20478;-86
2022/04/03 02:34:08;;;;;;;3.45;3.00;;;3.90;99.90;;;;;;5094959;28;20047;-87
2022/04/03 02:36:34;;;;;;;3.20;2.90;;;3.90;99.90;;;;;;5094843;28;20028;-86
2022/04/03 02:39:00;;;;;;;5.03;3.28;;;3.90;99.90;;;;;;5094965;28;20026;-86
2022/04/03 02:41:27;;;;;;;4.43;3.40;;;3.80;99.90;;;;;;5096324;28;20073;-86
2022/04/03 02:43:53;;;;;;;5.93;4.28;;;3.80;99.90;;;;;;5094770;28;20051;-85
2022/04/03 02:46:19;;;;;;;6.32;4.30;;;3.80;99.90;;;;;;5095690;28;20032;-85
2022/04/03 02:48:44;;;;;;;4.93;3.45;;;3.80;99.90;;;;;;5095882;28;20126;-86
2022/04/03 02:51:10;;;;;;;6.70;4.30;;;3.80;99.90;;;;;;5095589;28;20074;-86
2022/04/03 02:53:35;;;;;;;7.65;5.10;;;3.70;99.90;;;;;;5094635;28;20068;-86
2022/04/03 02:56:01;;;;;;;8.88;6.13;;;3.60;99.90;;;;;;5094463;28;20052;-86
2022/04/03 02:58:27;;;;;;;5.53;4.53;;;3.60;99.90;;;;;;5094477;28;20066;-86
2022/04/03 03:00:52;;;;;;;5.80;4.40;;;3.50;99.90;;;;;;5093445;28;20410;-86
2022/04/03 03:03:18;;;;;;;4.38;3.78;;;3.40;99.90;;;;;;5094451;28;20454;-86
2022/04/03 03:05:45;;;;;;;4.78;3.53;;;3.40;99.90;;;;;;5095591;28;20094;-86
2022/04/03 03:08:10;;;;;;;3.88;3.40;;;3.50;99.90;;;;;;5094378;28;20541;-86
2022/04/03 03:10:36;;;;;;;4.78;3.70;;;3.40;99.90;;;;;;5094303;28;20123;-86
2022/04/03 03:13:02;;;;;;;4.35;3.50;;;3.40;99.90;;;;;;5094143;28;20034;-86
2022/04/03 03:15:28;;;;;;;7.30;4.60;;;3.50;99.90;;;;;;5094055;28;20028;-85
2022/04/03 03:17:54;;;;;;;6.50;4.72;;;3.40;99.90;;;;;;5093781;28;20096;-86
2022/04/03 03:20:21;;;;;;;4.97;4.10;;;3.40;99.90;;;;;;5094215;28;20020;-86
2022/04/03 03:22:46;;;;;;;4.03;3.63;;;3.40;99.90;;;;;;5093804;28;20024;-85
2022/04/03 03:25:12;;;;;;;3.80;3.40;;;3.30;99.90;;;;;;5093940;28;20046;-86
2022/04/03 03:27:39;;;;;;;4.13;3.40;;;3.50;99.90;;;;;;5093836;28;20119;-86
2022/04/03 03:30:06;;;;;;;4.68;3.83;;;3.50;99.90;;;;;;5094973;28;20077;-86
2022/04/03 03:32:32;;;;;;;5.18;4.07;;;3.40;99.90;;;;;;5093600;28;20119;-86
2022/04/03 03:34:59;;;;;;;4.63;3.97;;;3.30;99.90;;;;;;5093591;28;20108;-86
2022/04/03 03:37:25;;;;;;;5.03;4.00;;;3.40;99.90;;;;;;5093576;28;20427;-86
2022/04/03 03:39:53;;;;;;;4.40;3.67;;;3.30;99.90;;;;;;5093759;28;20027;-85
2022/04/03 03:42:19;;;;;;;4.13;3.75;;;3.30;99.90;;;;;;5093608;28;20028;-86
2022/04/03 03:44:45;;;;;;;4.45;3.97;;;3.30;99.90;;;;;;5094735;28;20049;-85
2022/04/03 03:47:11;;;;;;;4.35;3.90;;;3.30;99.90;;;;;;5094984;28;20116;-86
2022/04/03 03:49:37;;;;;;;5.68;3.80;;;3.40;99.90;;;;;;5093369;28;20031;-85
2022/04/03 03:52:03;;;;;;;5.00;3.70;;;3.30;99.90;;;;;;5093151;28;20115;-85
2022/04/03 03:54:29;;;;;;;4.40;4.00;;;3.30;99.90;;;;;;5093104;28;20020;-86
2022/04/03 03:56:55;;;;;;;5.10;4.43;;;3.30;99.90;;;;;;5093207;28;20073;-85
2022/04/03 03:59:21;;;;;;;4.45;4.00;;;3.30;99.90;;;;;;5094378;28;20027;-85
2022/04/03 04:01:46;;;;;;;4.13;3.63;;;3.40;99.90;;;;;;5093245;28;20405;-86
2022/04/03 04:04:12;;;;;;;5.50;4.15;;;3.50;99.90;;;;;;5093306;28;20028;-86
2022/04/03 04:06:37;;;;;;;5.15;4.20;;;3.50;99.90;;;;;;5094369;28;20111;-86
2022/04/03 04:09:04;;;;;;;5.22;4.38;;;3.50;99.90;;;;;;5093046;28;20026;-85
2022/04/03 04:11:30;;;;;;;5.63;4.57;;;3.50;99.90;;;;;;5093096;28;20031;-86
2022/04/03 04:13:55;;;;;;;4.78;4.28;;;3.50;99.90;;;;;;5093034;28;20028;-86
2022/04/03 04:16:21;;;;;;;5.30;4.40;;;3.50;99.90;;;;;;5094148;28;20066;-85
2022/04/03 04:18:47;;;;;;;5.55;4.57;;;3.50;99.90;;;;;;5093050;28;20025;-85
2022/04/03 04:21:14;;;;;;;5.28;4.32;;;3.40;99.90;;;;;;5094277;28;20504;-85
2022/04/03 04:23:40;;;;;;;4.57;4.00;;;3.40;99.90;;;;;;5092973;28;20024;-86
2022/04/03 04:26:06;;;;;;;5.00;4.32;;;3.40;99.90;;;;;;5094268;28;20099;-85
2022/04/03 04:28:32;;;;;;;4.88;4.38;;;3.30;99.90;;;;;;5093154;28;20020;-86
2022/04/03 04:30:57;;;;;;;4.90;4.40;;;3.40;99.90;;;;;;5094067;28;20073;-86
2022/04/03 04:33:25;;;;;;;5.47;4.70;;;3.30;99.90;;;;;;5094166;28;20459;-86
2022/04/03 04:35:51;;;;;;;9.43;4.75;;;3.40;99.90;;;;;;5092927;28;20106;-86
2022/04/03 04:38:17;;;;;;;5.43;4.60;;;3.40;99.90;;;;;;5092914;28;20032;-86
2022/04/03 04:40:43;;;;;;;5.82;4.65;;;3.50;99.90;;;;;;5092743;28;20360;-85
2022/04/03 04:43:09;;;;;;;5.78;4.40;;;3.50;99.90;;;;;;5092818;28;20515;-86
2022/04/03 04:45:36;;;;;;;5.85;4.57;;;3.50;99.90;;;;;;5093981;28;20470;-86
2022/04/03 04:48:01;;;;;;;5.68;4.80;;;3.60;99.90;;;;;;5092959;28;20386;-85
2022/04/03 04:50:28;;;;;;;6.50;5.00;;;3.60;99.90;;;;;;5092536;28;20047;-86
2022/04/03 04:52:56;;;;;;;5.95;5.00;;;3.60;99.90;;;;;;5092739;28;20020;-85
2022/04/03 04:55:22;;;;;;;6.10;5.13;;;3.60;99.90;;;;;;5092565;28;20032;-86
2022/04/03 04:57:53;;;;;;;6.05;5.32;;;3.70;99.90;;;;;;5093779;28;20020;-86
2022/04/03 05:00:20;;;;;;;5.88;5.05;;;3.90;99.90;;;;;;5092937;28;20032;-85
2022/04/03 05:02:46;;;;;;;6.15;5.15;;;3.90;99.90;;;;;;5092654;28;20103;-86
2022/04/03 05:05:14;;;;;;;5.65;5.05;;;4.00;99.90;;;;;;5092645;28;20024;-86
2022/04/03 05:07:40;;;;;;;6.30;5.30;;;4.00;99.90;;;;;;5093741;28;20121;-86
2022/04/03 05:10:07;;;;;;;6.70;5.45;;;4.10;99.90;;;;;;5092649;28;20382;-86
2022/04/03 05:12:35;;;;;;;6.03;5.00;;;4.20;99.90;;;;;;5094017;28;20028;-86
2022/04/03 05:15:01;;;;;;;7.05;5.53;;;4.30;99.90;;;;;;5093860;28;20024;-86
2022/04/03 05:17:27;;;;;;;7.43;6.05;;;4.30;99.90;;;;;;5092127;28;20410;-86
2022/04/03 05:19:54;;;;;;;6.30;5.25;;;4.40;99.90;;;;;;5092408;28;20364;-85
2022/04/03 05:22:23;;;;;;;6.30;5.70;;;4.40;99.90;;;;;;5092343;28;20047;-85
2022/04/03 05:24:53;;;;;;;6.53;5.57;;;4.30;99.90;;;;;;5094047;28;20086;-85
2022/04/03 05:27:19;;;;;;;6.97;5.90;;;4.20;99.90;;;;;;5095970;28;20030;-86
2022/04/03 05:29:45;;;;;;;6.18;5.30;;;4.30;99.90;;;;;;5096046;28;20123;-85
2022/04/03 05:32:11;;;;;;;7.60;5.80;;;4.30;99.90;;;;;;5095870;28;20428;-85
2022/04/03 05:34:37;;;;;;;8.25;6.07;;;4.30;99.90;;;;;;5097216;28;20069;-85
2022/04/03 05:37:03;;;;;;;6.95;5.72;;;4.30;99.90;;;;;;5097140;28;20024;-86
2022/04/03 05:39:29;;;;;;;7.68;6.20;;;4.50;99.90;;;;;;5095894;28;20032;-86
2022/04/03 05:41:55;;;;;;;9.63;6.97;;;4.60;99.90;;;;;;5095787;28;20027;-85
2022/04/03 05:44:22;;;;;;;6.53;5.50;;;4.60;99.90;;;;;;5095481;28;20026;-85
2022/04/03 05:46:48;;;;;;;6.40;5.72;;;4.60;99.90;;;;;;5096619;28;20039;-85
2022/04/03 05:49:14;;;;;;;6.57;5.45;;;4.60;99.90;;;;;;5095538;28;20028;-85
2022/04/03 05:51:40;;;;;;;7.00;6.20;;;4.70;99.90;;;;;;5095300;28;20119;-85
2022/04/03 05:54:06;;;;;;;7.45;5.72;;;4.90;99.90;;;;;;5095338;28;20028;-85
2022/04/03 05:56:32;;;;;;;6.00;5.40;;;5.00;99.90;;;;;;5096614;28;20032;-86
2022/04/03 05:58:58;;;;;;;6.70;5.78;;;5.30;99.90;;;;;;5095409;28;20470;-86
2022/04/03 06:01:24;;;;;;;6.00;5.40;;;5.40;99.90;;;;;;5095503;28;20020;-86
2022/04/03 06:03:50;;;;;;;6.03;5.43;;;5.40;99.90;;;;;;5095460;28;20029;-86
2022/04/03 06:06:16;;;;;;;5.82;5.22;;;5.60;99.90;;;;;;5095373;28;20024;-85
2022/04/03 06:08:43;;;;;;;8.23;5.72;;;5.50;99.90;;;;;;5096687;28;20020;-86
2022/04/03 06:11:09;;;;;;;5.68;5.07;;;5.50;99.90;;;;;;5095464;28;20020;-86
2022/04/03 06:13:35;;;;;;;6.38;5.18;;;5.60;99.90;;;;;;5095214;28;20153;-86
2022/04/03 06:16:02;;;;;;;6.07;5.10;;;5.60;99.90;;;;;;5094786;28;20115;-86
2022/04/03 06:18:28;;;;;;;5.53;5.00;;;5.60;99.90;;;;;;5095035;28;20028;-86
2022/04/03 06:20:54;;;;;;;6.40;4.65;;;5.50;99.90;;;;;;5094872;28;20024;-86
2022/04/03 06:23:22;;;;;;;5.60;5.10;;;5.60;99.90;;;;;;5095006;28;20020;-85
2022/04/03 06:25:57;;;;;;;5.97;5.38;;;5.60;99.90;;;;;;5094822;28;20115;-85
2022/04/03 06:28:25;;;;;;;6.20;5.15;;;5.80;99.90;;;;;;5094978;28;20028;-85
2022/04/03 06:30:51;;;;;;;5.72;5.13;;;5.80;99.90;;;;;;5094662;28;20024;-85
2022/04/03 06:33:17;;;;;;;5.43;4.93;;;5.80;99.90;;;;;;5094502;28;20077;-84
2022/04/03 06:35:44;;;;;;;6.30;5.35;;;5.80;99.90;;;;;;5094595;28;20028;-85
2022/04/03 06:38:10;;;;;;;6.07;5.10;;;5.90;99.90;;;;;;5094426;28;20478;-85
2022/04/03 06:40:37;;;;;;;6.13;5.40;;;5.90;99.90;;;;;;5094237;28;20360;-84
2022/04/03 06:43:03;;;;;;;5.55;4.95;;;5.90;99.90;;;;;;5095591;28;20013;-85
2022/04/03 06:45:29;;;;;;;7.00;5.78;;;5.80;99.90;;;;;;5094267;28;20016;-85
2022/04/03 06:48:00;;;;;;;6.00;5.40;;;5.80;99.90;;;;;;5094202;28;20482;-84
2022/04/03 06:50:25;;;;;;;6.32;5.47;;;5.70;99.90;;;;;;5094187;28;20020;-84
2022/04/03 06:52:51;;;;;;;6.80;5.25;;;5.70;99.90;;;;;;5095476;28;20034;-85
2022/04/03 06:55:17;;;;;;;7.68;6.50;;;5.70;99.90;;;;;;5095552;28;20492;-85
2022/04/03 06:57:42;;;;;;;6.95;5.97;;;5.70;99.90;;;;;;5094097;28;20020;-85
2022/04/03 07:00:09;;;;;;;6.93;5.80;;;5.80;99.90;;;;;;5095448;28;20023;-85
2022/04/03 07:02:35;;;;;;;7.57;6.75;;;5.80;99.90;;;;;;5093929;28;20071;-84
2022/04/03 07:05:02;;;;;;;6.88;6.15;;;5.70;99.90;;;;;;5095084;28;20020;-84
2022/04/03 07:07:28;;;;;;;7.47;6.20;;;5.80;99.90;;;;;;5093683;28;20093;-84
2022/04/03 07:09:54;;;;;;;7.70;6.60;;;5.80;99.90;;;;;;5094041;28;20078;-84
2022/04/03 07:12:20;;;;;;;7.18;6.38;;;5.90;99.90;;;;;;5093755;28;20469;-85
2022/04/03 07:14:46;;;;;;;7.82;6.25;;;5.90;99.90;;;;;;5093787;28;20044;-85
2022/04/03 07:17:12;;;;;;;7.68;6.80;;;5.90;99.90;;;;;;5093605;28;20051;-85
2022/04/03 07:19:37;;;;;;;7.65;6.32;;;5.90;99.90;;;;;;5094978;28;20031;-85
2022/04/03 07:22:03;;;;;;;7.68;6.32;;;5.90;99.90;;;;;;5095084;28;20156;-84
2022/04/03 16:19:33;;;;;;;45.10;16.95;;;3.30;99.90;;;;;;5071900;28;20368;-85
2022/04/03 16:22:01;;;;;;;85.50;22.33;;;3.30;99.90;;;;;;5070048;28;20098;-86
2022/04/03 16:24:27;;;;;;;137.45;43.42;;;3.30;99.90;;;;;;5069971;28;20112;-85
2022/04/03 16:26:54;;;;;;;76.72;28.13;;;3.30;99.90;;;;;;5070037;28;20491;-85
2022/04/03 16:29:21;;;;;;;147.48;33.67;;;3.30;99.90;;;;;;5071206;28;20104;-86
2022/04/03 16:31:47;;;;;;;80.88;22.67;;;3.40;99.90;;;;;;5069928;28;20025;-86
2022/04/03 16:34:13;;;;;;;41.13;16.33;;;3.50;99.90;;;;;;5069753;28;20478;-85
2022/04/03 16:36:39;;;;;;;14.82;9.88;;;3.50;99.90;;;;;;5069665;28;20032;-86
2022/04/03 16:39:05;;;;;;;38.13;17.55;;;3.60;99.90;;;;;;5069769;28;20025;-87
2022/04/03 16:41:33;;;;;;;31.70;16.92;;;3.70;99.90;;;;;;5069733;28;20027;-86
2022/04/03 16:43:59;;;;;;;65.55;31.13;;;3.80;99.90;;;;;;5069807;28;20020;-86
2022/04/03 16:46:26;;;;;;;57.58;27.70;;;3.70;99.90;;;;;;5070874;28;20070;-87
2022/04/03 16:48:53;;;;;;;77.82;40.08;;;3.70;99.90;;;;;;5069740;28;20024;-86
2022/04/03 16:51:19;;;;;;;72.13;38.08;;;3.60;99.90;;;;;;5069398;28;20040;-86
2022/04/03 16:53:44;;;;;;;54.25;35.10;;;3.60;99.90;;;;;;5069647;28;20171;-86
2022/04/03 16:56:12;;;;;;;34.42;27.17;;;3.60;99.90;;;;;;5069488;28;20033;-86
2022/04/03 16:58:37;;;;;;;49.90;31.75;;;3.60;99.90;;;;;;5069446;28;20040;-86
2022/04/03 17:01:03;;;;;;;191.25;59.03;;;3.60;99.90;;;;;;5069153;28;20399;-85
2022/04/03 17:03:29;;;;;;;38.50;21.33;;;3.60;99.90;;;;;;5070397;28;20025;-86
2022/04/03 17:05:54;;;;;;;16.92;12.82;;;3.70;99.90;;;;;;5069105;28;20025;-86
2022/04/03 17:08:20;;;;;;;27.40;15.27;;;3.70;99.90;;;;;;5070396;28;20028;-86
2022/04/03 17:10:46;;;;;;;35.30;24.13;;;3.80;99.90;;;;;;5069233;28;20513;-86
2022/04/03 17:13:13;;;;;;;47.47;20.98;;;3.80;99.90;;;;;;5070007;28;20021;-85
2022/04/03 17:15:39;;;;;;;50.20;27.08;;;3.70;99.90;;;;;;5068692;28;20115;-85
2022/04/03 17:18:05;;;;;;;27.73;19.45;;;3.70;99.90;;;;;;5068696;28;20048;-86
2022/04/03 17:20:31;;;;;;;22.00;15.77;;;3.80;99.90;;;;;;5068820;28;20386;-86
2022/04/03 17:22:59;;;;;;;25.83;15.90;;;3.80;99.90;;;;;;5069126;28;20025;-88
2022/04/03 17:25:25;;;;;;;18.13;14.43;;;3.70;99.90;;;;;;5069089;28;20475;-88
2022/04/03 17:27:50;;;;;;;10.43;8.30;;;3.80;99.90;;;;;;5069109;28;20116;-89
2022/04/03 17:30:16;;;;;;;15.05;10.30;;;3.70;99.90;;;;;;5059337;28;20050;-89
2022/04/03 17:32:42;;;;;;;11.63;8.70;;;3.40;99.90;;;;;;5055539;28;20368;-89
2022/04/03 17:35:09;;;;;;;19.17;13.15;;;3.20;99.90;;;;;;5055707;28;20028;-89
2022/04/03 17:37:35;;;;;;;18.10;12.45;;;3.00;99.90;;;;;;5055461;28;20498;-89
2022/04/03 17:40:04;;;;;;;13.15;10.77;;;2.90;99.90;;;;;;5055529;28;20467;-88
2022/04/03 17:42:30;;;;;;;15.57;12.85;;;2.80;99.90;;;;;;5055683;28;20028;-89
2022/04/03 17:44:56;;;;;;;20.25;13.82;;;2.80;99.90;;;;;;5055394;28;20025;-89
2022/04/03 17:47:22;;;;;;;33.85;24.27;;;2.80;99.90;;;;;;5055652;28;20363;-89
2022/04/03 17:49:48;;;;;;;30.13;23.13;;;2.70;99.90;;;;;;5055534;28;20035;-88
2022/04/03 17:52:15;;;;;;;32.20;26.92;;;2.80;99.90;;;;;;5056480;28;20020;-89
2022/04/03 17:54:41;;;;;;;18.00;14.35;;;2.70;99.90;;;;;;5055382;28;20025;-88
2022/04/03 17:57:07;;;;;;;15.40;10.80;;;2.70;99.90;;;;;;5056640;28;20475;-89
2022/04/03 17:59:33;;;;;;;16.75;12.20;;;2.70;99.90;;;;;;5055421;28;20025;-89
2022/04/03 18:02:01;;;;;;;16.30;10.15;;;2.60;99.90;;;;;;5056378;28;20013;-89
2022/04/03 18:04:28;;;;;;;13.57;9.55;;;2.70;99.90;;;;;;5055458;28;20021;-89
2022/04/03 18:06:56;;;;;;;14.85;9.40;;;2.70;99.90;;;;;;5054732;28;20037;-88
2022/04/03 18:09:22;;;;;;;18.02;10.48;;;2.70;99.90;;;;;;5055002;28;20483;-88
2022/04/03 18:11:48;;;;;;;24.92;13.07;;;2.60;99.90;;;;;;5056936;28;20036;-88
2022/04/03 18:14:15;;;;;;;23.98;14.48;;;2.60;99.90;;;;;;5055250;28;20028;-90
2022/04/03 18:16:41;;;;;;;38.42;16.52;;;2.70;99.90;;;;;;5054924;28;20035;-88
2022/04/03 18:19:11;;;;;;;16.92;11.18;;;2.70;99.90;;;;;;5054697;28;20048;-91
2022/04/03 18:21:38;;;;;;;29.20;14.77;;;2.70;99.90;;;;;;5054919;28;20025;-89
2022/04/03 18:24:05;;;;;;;12.48;9.32;;;2.70;99.90;;;;;;5054995;28;20025;-91
2022/04/03 18:26:33;;;;;;;14.93;10.25;;;2.70;99.90;;;;;;5055092;28;20025;-91
2022/04/03 18:28:59;;;;;;;22.98;12.18;;;2.70;99.90;;;;;;5054945;28;20083;-90
2022/04/03 18:31:25;;;;;;;11.73;8.32;;;2.70;99.90;;;;;;5054781;28;20025;-90
2022/04/03 18:33:51;;;;;;;18.73;11.02;;;2.80;99.90;;;;;;5054932;28;20025;-88
2022/04/03 18:36:19;;;;;;;8.23;6.53;;;2.70;99.90;;;;;;5054638;28;20410;-88
2022/04/03 18:38:45;;;;;;;16.45;8.38;;;2.70;99.90;;;;;;5054310;28;20041;-89
2022/04/03 18:41:10;;;;;;;8.50;5.68;;;2.70;99.90;;;;;;5053852;28;20028;-91
2022/04/03 18:43:36;;;;;;;8.98;5.95;;;2.80;99.90;;;;;;5054504;28;20025;-92
2022/04/03 18:46:02;;;;;;;12.63;6.57;;;2.70;99.90;;;;;;5054491;28;20074;-90
2022/04/03 18:48:28;;;;;;;9.35;6.03;;;2.80;99.90;;;;;;5054398;28;20028;-91
2022/04/03 18:50:55;;;;;;;8.75;5.82;;;2.70;99.90;;;;;;5054595;28;20028;-91
2022/04/03 18:53:20;;;;;;;6.45;5.65;;;2.70;99.90;;;;;;5054434;28;20032;-89
2022/04/03 18:55:48;;;;;;;8.00;6.00;;;2.70;99.90;;;;;;5054066;28;20029;-90
2022/04/03 18:58:21;;;;;;;6.30;5.20;;;2.60;99.90;;;;;;5054139;28;20108;-91
2022/04/03 19:00:47;;;;;;;6.78;5.57;;;2.70;99.90;;;;;;5054301;28;20021;-91
2022/04/03 19:03:13;;;;;;;7.40;5.20;;;2.70;99.90;;;;;;5054140;28;20625;-88
2022/04/03 19:05:42;;;;;;;7.22;6.03;;;2.60;99.90;;;;;;5054141;28;20026;-90
2022/04/03 19:08:10;;;;;;;6.35;5.30;;;2.50;99.90;;;;;;5054063;28;20127;-90
2022/04/03 19:10:39;;;;;;;6.47;5.30;;;2.40;99.90;;;;;;5053960;28;20021;-90
2022/04/03 19:13:06;;;;;;;6.72;5.40;;;2.40;99.90;;;;;;5054129;28;20057;-92
2022/04/03 19:15:34;;;;;;;10.25;6.30;;;2.40;99.90;;;;;;5054027;28;20074;-90
2022/04/03 19:18:00;;;;;;;6.75;5.68;;;2.40;99.90;;;;;;5053717;28;20045;-91
2022/04/03 19:20:26;;;;;;;7.75;5.72;;;2.40;99.90;;;;;;5053989;28;20056;-90
2022/04/03 19:22:52;;;;;;;9.55;5.85;;;2.30;99.90;;;;;;5053836;28;20029;-91
2022/04/03 19:25:18;;;;;;;9.32;5.75;;;2.30;99.90;;;;;;5053680;28;20063;-91
2022/04/03 19:27:47;;;;;;;9.00;6.72;;;2.30;99.90;;;;;;5053742;28;20036;-91
2022/04/03 19:30:13;;;;;;;9.27;7.60;;;2.20;99.90;;;;;;5053598;28;20566;-91
2022/04/03 19:32:39;;;;;;;9.93;7.25;;;2.30;99.90;;;;;;5053553;28;20029;-90
2022/04/03 19:35:05;;;;;;;10.00;6.72;;;2.20;99.90;;;;;;5054694;28;20055;-90
2022/04/03 19:37:32;;;;;;;8.63;6.63;;;2.30;99.90;;;;;;5055903;28;20024;-90
2022/04/03 19:39:58;;;;;;;9.05;6.78;;;2.30;99.90;;;;;;5053335;28;20017;-90
2022/04/03 19:42:28;;;;;;;10.20;6.70;;;2.30;99.90;;;;;;5053346;28;20442;-90
2022/04/03 19:44:55;;;;;;;8.45;6.38;;;2.20;99.90;;;;;;5053084;28;20514;-90
2022/04/03 19:47:20;;;;;;;9.60;6.80;;;2.20;99.90;;;;;;5053369;28;20033;-90
2022/04/03 19:49:46;;;;;;;9.85;7.50;;;2.10;99.90;;;;;;5053255;28;20055;-90
2022/04/03 19:52:13;;;;;;;9.02;7.00;;;2.10;99.90;;;;;;5054184;28;20031;-91
2022/04/03 19:54:38;;;;;;;9.02;6.57;;;2.10;99.90;;;;;;5053026;28;20467;-91
2022/04/03 19:57:04;;;;;;;8.60;6.22;;;2.30;99.90;;;;;;5053564;28;20036;-92
2022/04/03 19:59:30;;;;;;;8.60;6.78;;;2.20;99.90;;;;;;5053232;28;20097;-90
2022/04/03 20:01:56;;;;;;;11.27;7.45;;;2.30;99.90;;;;;;5053238;28;20158;-91
2022/04/03 20:04:21;;;;;;;9.63;7.05;;;2.20;99.90;;;;;;5052997;28;20024;-91
2022/04/03 20:06:47;;;;;;;11.25;7.55;;;2.20;99.90;;;;;;5051831;28;20353;-91
2022/04/03 20:09:13;;;;;;;9.07;6.68;;;2.30;99.90;;;;;;5051919;28;20021;-86
2022/04/03 20:11:39;;;;;;;8.65;6.80;;;2.30;99.90;;;;;;5052286;28;20087;-90
2022/04/03 20:14:05;;;;;;;10.85;6.78;;;2.10;99.90;;;;;;5051936;28;20025;-89
2022/04/03 20:16:31;;;;;;;9.55;6.78;;;1.90;99.90;;;;;;5053124;28;20036;-91
2022/04/03 20:18:57;;;;;;;9.63;6.80;;;1.70;99.90;;;;;;5051693;28;20057;-90
2022/04/03 20:21:23;;;;;;;9.18;7.05;;;1.60;99.90;;;;;;5053789;28;20029;-90
2022/04/03 20:23:49;;;;;;;13.02;8.38;;;1.50;99.90;;;;;;5053415;28;20024;-91
2022/04/03 20:26:15;;;;;;;11.23;7.63;;;1.50;99.90;;;;;;5052473;28;20456;-90
2022/04/03 20:28:43;;;;;;;11.27;7.78;;;1.40;99.90;;;;;;5052239;28;20052;-91
2022/04/03 20:31:10;;;;;;;13.75;8.95;;;1.50;99.90;;;;;;5052771;28;20021;-91
2022/04/03 20:33:38;;;;;;;12.73;8.85;;;1.60;99.90;;;;;;5051963;28;20036;-91
2022/04/03 20:36:05;;;;;;;12.32;8.43;;;1.60;99.90;;;;;;5049689;28;20593;-91
2022/04/03 20:38:31;;;;;;;15.45;10.52;;;1.60;99.90;;;;;;5051790;28;20025;-90
2022/04/03 20:40:57;;;;;;;13.02;9.32;;;1.50;99.90;;;;;;5052492;28;20039;-91
2022/04/03 20:43:26;;;;;;;14.80;10.15;;;1.50;99.90;;;;;;5052414;28;20048;-89
2022/04/03 20:45:52;;;;;;;13.57;9.38;;;1.60;99.90;;;;;;5053334;28;20040;-90
2022/04/03 20:48:18;;;;;;;13.40;8.45;;;1.50;99.90;;;;;;5053297;28;20111;-91
2022/04/03 20:50:44;;;;;;;12.75;9.05;;;1.50;99.90;;;;;;5052295;28;20058;-91
2022/04/03 20:53:09;;;;;;;14.13;9.30;;;1.50;99.90;;;;;;5052200;28;20115;-90
2022/04/03 20:55:39;;;;;;;14.05;9.20;;;1.50;99.90;;;;;;5052252;28;20027;-90
2022/04/03 20:58:05;;;;;;;14.02;8.98;;;1.50;99.90;;;;;;5050507;28;20151;-90
2022/04/03 21:00:30;;;;;;;13.65;9.27;;;1.50;99.90;;;;;;5052209;28;20108;-91
2022/04/03 21:02:56;;;;;;;13.25;9.20;;;1.50;99.90;;;;;;5053957;28;20463;-91
2022/04/03 21:05:22;;;;;;;12.77;9.57;;;1.50;99.90;;;;;;5055091;28;20029;-91
2022/04/03 21:07:47;;;;;;;14.63;9.38;;;1.50;99.90;;;;;;5056506;28;20032;-91
2022/04/03 21:10:13;;;;;;;12.88;9.63;;;1.50;99.90;;;;;;5056705;28;20035;-91
2022/04/03 21:12:39;;;;;;;16.08;10.90;;;1.40;99.90;;;;;;5056406;28;20052;-91
2022/04/03 21:15:05;;;;;;;16.40;10.32;;;1.40;99.90;;;;;;5056243;28;20025;-91
2022/04/03 21:17:31;;;;;;;14.98;10.32;;;1.40;99.90;;;;;;5056060;28;20056;-90
2022/04/03 21:19:57;;;;;;;15.98;10.32;;;1.40;99.90;;;;;;5056486;28;20047;-90
2022/04/03 21:22:22;;;;;;;17.20;10.07;;;1.40;99.90;;;;;;5056339;28;20025;-90
2022/04/03 21:24:48;;;;;;;14.90;10.27;;;1.40;99.90;;;;;;5057310;28;20021;-91
2022/04/03 21:27:14;;;;;;;16.05;10.25;;;1.30;99.90;;;;;;5056378;28;20032;-91
2022/04/03 21:29:40;;;;;;;17.38;11.25;;;1.30;99.90;;;;;;5056142;28;20028;-92
2022/04/03 21:32:07;;;;;;;14.95;10.43;;;1.20;99.90;;;;;;5056145;28;20032;-91
2022/04/03 21:34:33;;;;;;;18.23;11.55;;;1.20;99.90;;;;;;5055899;28;20040;-92
2022/04/03 21:36:59;;;;;;;16.70;11.35;;;1.10;99.90;;;;;;5056335;28;20032;-92
2022/04/03 21:39:25;;;;;;;18.13;11.95;;;1.10;99.90;;;;;;5055885;28;20025;-92
2022/04/03 21:41:52;;;;;;;16.75;11.10;;;1.20;99.90;;;;;;5056957;28;20487;-92